Time;durP1;ratioP1;P1;durP2;ratioP2;P2;SDS_P1;SDS_P2;PMS_P1;PMS_P2;Temp;Humidity;BMP_temperature;BMP_pressure;BME280_temperature;BME280_humidity;BME280_pressure;Samples;Min_cycle;Max_cycle;Signal;HPM_P1;HPM_P2
2023/12/19 00:03:58;;;;;;;1999.90;999.90;;;;;;;10.75;76.57;102416.19;10456633;28;20080;-65
2023/12/19 00:09:00;;;;;;;1999.90;999.90;;;;;;;10.95;79.76;102410.31;10456256;28;20106;-65
2023/12/19 00:14:03;;;;;;;1999.90;999.90;;;;;;;10.94;76.46;102400.72;10456259;28;20041;-65
2023/12/19 00:19:07;;;;;;;1999.90;999.90;;;;;;;10.97;76.94;102400.63;10456671;28;20124;-65
2023/12/19 00:24:10;;;;;;;1999.90;999.90;;;;;;;11.15;74.44;102381.66;10456199;28;20476;-65
2023/12/19 00:29:13;;;;;;;1999.90;999.90;;;;;;;11.23;74.85;102356.91;10456095;28;20123;-65
2023/12/19 00:34:16;;;;;;;1999.90;999.90;;;;;;;11.51;73.60;102368.13;10454681;28;20044;-65
2023/12/19 00:39:19;;;;;;;1999.90;999.90;;;;;;;10.65;76.55;102344.06;10455919;28;20056;-65
2023/12/19 00:44:21;;;;;;;1999.90;999.90;;;;;;;10.90;77.66;102342.31;10454545;28;20046;-65
2023/12/19 00:49:23;;;;;;;1999.90;999.90;;;;;;;11.36;77.79;102323.25;10454535;28;20431;-65
2023/12/19 00:54:26;;;;;;;1999.90;999.90;;;;;;;11.68;75.05;102332.56;10455470;28;20053;-65
2023/12/19 00:59:28;;;;;;;1999.90;999.90;;;;;;;11.46;76.36;102309.75;10456011;28;20381;-66
2023/12/19 01:04:30;;;;;;;1999.90;999.90;;;;;;;11.01;78.53;102307.03;10455248;28;20419;-66
2023/12/19 01:09:33;;;;;;;1999.90;999.90;;;;;;;11.77;74.63;102305.09;10455268;28;20049;-65
2023/12/19 01:14:36;;;;;;;1999.90;999.90;;;;;;;11.60;76.93;102305.75;10454178;28;20159;-65
2023/12/19 01:19:38;;;;;;;1999.90;999.90;;;;;;;11.48;75.47;102299.19;10453945;28;20090;-65
2023/12/19 01:24:41;;;;;;;1999.90;999.90;;;;;;;11.59;75.17;102297.03;10461271;28;20073;-66
2023/12/19 01:29:43;;;;;;;1999.90;999.90;;;;;;;11.00;74.70;102290.44;10462362;28;20044;-65
2023/12/19 01:34:46;;;;;;;1999.90;999.90;;;;;;;11.78;77.68;102288.47;10461959;28;20480;-65
2023/12/19 01:39:49;;;;;;;1999.90;999.90;;;;;;;11.69;74.54;102290.53;10461975;28;20059;-66
2023/12/19 01:45:12;;;;;;;1999.90;999.90;;;;;;;11.40;75.08;102294.25;10460500;28;20468;-65
2023/12/19 01:50:16;;;;;;;1999.90;999.90;;;;;;;11.27;75.72;102298.25;10460492;28;20059;-65
2023/12/19 01:55:20;;;;;;;1999.90;999.90;;;;;;;11.34;76.49;102305.81;10461157;28;20041;-65
2023/12/19 02:00:23;;;;;;;1999.90;999.90;;;;;;;12.07;74.27;102287.38;10459897;28;20476;-65
2023/12/19 02:05:25;;;;;;;1999.90;999.90;;;;;;;11.27;76.32;102291.22;10460906;28;20045;-65
2023/12/19 02:10:28;;;;;;;1999.90;999.90;;;;;;;12.05;74.14;102289.19;10460788;28;20055;-65
2023/12/19 02:15:30;;;;;;;1999.90;999.90;;;;;;;11.05;77.85;102283.28;10460543;28;20056;-65
2023/12/19 02:20:32;;;;;;;1999.90;999.90;;;;;;;11.38;77.60;102261.13;10459126;28;20098;-65
2023/12/19 02:25:35;;;;;;;1999.90;999.90;;;;;;;11.85;75.59;102243.56;10460026;28;20052;-65
2023/12/19 02:30:37;;;;;;;1999.90;999.90;;;;;;;12.14;73.83;102240.69;10459889;28;20049;-65
2023/12/19 02:35:44;;;;;;;1999.90;999.90;;;;;;;10.95;75.67;102239.97;10458693;28;20045;-66
2023/12/19 02:40:46;;;;;;;1999.90;999.90;;;;;;;10.74;79.37;102231.09;10459482;28;20056;-65
2023/12/19 02:45:48;;;;;;;1999.90;999.90;;;;;;;11.36;80.33;102237.56;10459235;28;20593;-65
2023/12/19 02:50:51;;;;;;;1999.90;999.90;;;;;;;11.69;77.98;102216.22;10459220;28;20053;-65
2023/12/19 02:55:53;;;;;;;1999.90;999.90;;;;;;;10.97;79.90;102212.78;10458679;28;20048;-65
2023/12/19 03:00:56;;;;;;;1999.90;999.90;;;;;;;11.93;76.31;102192.56;10458958;28;20048;-64
2023/12/19 03:05:59;;;;;;;1999.90;999.90;;;;;;;10.92;80.11;102185.03;10458573;28;20135;-64
2023/12/19 03:11:01;;;;;;;1999.90;999.90;;;;;;;11.63;77.13;102175.34;10458587;28;20056;-65
2023/12/19 03:16:04;;;;;;;1999.90;999.90;;;;;;;11.45;77.82;102173.44;10456983;28;20048;-64
2023/12/19 03:21:08;;;;;;;1999.90;999.90;;;;;;;11.24;79.80;102149.75;10457840;28;20064;-64
2023/12/19 03:26:10;;;;;;;1999.90;999.90;;;;;;;11.52;79.35;102135.56;10457689;28;20400;-65
2023/12/19 03:31:13;;;;;;;1999.90;999.90;;;;;;;12.17;76.68;102123.28;10457550;28;20052;-64
2023/12/19 03:36:15;;;;;;;1999.90;999.90;;;;;;;10.90;78.58;102111.72;10457611;28;20049;-64
2023/12/19 03:41:17;;;;;;;1999.90;999.90;;;;;;;11.19;79.90;102093.19;10457206;28;20055;-64
2023/12/19 03:46:20;;;;;;;1999.90;999.90;;;;;;;11.45;76.94;102103.50;10456722;28;20480;-64
2023/12/19 03:51:22;;;;;;;1999.90;999.90;;;;;;;11.36;77.66;102106.47;10457007;28;20053;-64
2023/12/19 03:56:24;;;;;;;1999.90;999.90;;;;;;;11.90;75.07;102101.63;10456642;28;20048;-64
2023/12/19 04:01:30;;;;;;;1999.90;999.90;;;;;;;11.83;76.83;102081.84;10456614;28;20048;-64
2023/12/19 04:06:32;;;;;;;1999.90;999.90;;;;;;;11.85;76.38;102082.59;10456465;28;20049;-64
2023/12/19 04:11:35;;;;;;;1999.90;999.90;;;;;;;11.41;81.08;102077.44;10455483;28;20045;-65
2023/12/19 04:16:37;;;;;;;1999.90;999.90;;;;;;;11.67;78.37;102071.13;10455070;28;20076;-64
2023/12/19 04:21:41;;;;;;;1999.90;999.90;;;;;;;11.19;78.44;102062.56;10455017;28;20053;-64
2023/12/19 04:26:46;;;;;;;1999.90;999.90;;;;;;;11.54;78.71;102047.19;10456280;28;20045;-64
2023/12/19 04:31:48;;;;;;;1999.90;999.90;;;;;;;11.83;77.20;102032.81;10456076;28;20053;-67
2023/12/19 04:36:51;;;;;;;1999.90;999.90;;;;;;;11.57;77.79;102018.19;10456048;28;20106;-67
2023/12/19 04:41:53;;;;;;;1999.90;999.90;;;;;;;11.29;81.55;102021.94;10455939;28;20053;-67
2023/12/19 04:46:56;;;;;;;1999.90;999.90;;;;;;;11.29;80.19;102016.72;10456374;28;20049;-67
2023/12/19 04:51:58;;;;;;;1999.90;999.90;;;;;;;11.44;80.30;102004.75;10455773;28;20055;-67
2023/12/19 04:57:00;;;;;;;1999.90;999.90;;;;;;;11.37;80.83;101997.22;10457974;28;20103;-66
2023/12/19 05:02:03;;;;;;;1999.90;999.90;;;;;;;11.74;80.55;102019.25;10462476;28;20052;-67
2023/12/19 05:07:05;;;;;;;1999.90;999.90;;;;;;;11.06;80.68;102006.31;10463171;28;20055;-67
2023/12/19 05:12:08;;;;;;;1999.90;999.90;;;;;;;11.04;81.75;101987.19;10463251;28;20053;-67
2023/12/19 05:17:10;;;;;;;1999.90;999.90;;;;;;;11.28;80.36;101987.94;10462880;28;20047;-67
2023/12/19 05:22:13;;;;;;;1999.90;999.90;;;;;;;11.75;79.12;101971.09;10462846;28;20496;-66
2023/12/19 05:27:15;;;;;;;1999.90;999.90;;;;;;;12.01;80.17;101970.00;10462540;28;20045;-67
2023/12/19 05:32:17;;;;;;;1999.90;999.90;;;;;;;11.78;80.76;101968.34;10462730;28;20068;-68
2023/12/19 05:37:20;;;;;;;1999.90;999.90;;;;;;;11.25;80.43;101959.25;10462146;28;20045;-66
2023/12/19 05:42:22;;;;;;;1999.90;999.90;;;;;;;11.60;80.70;101970.88;10462282;28;20455;-66
2023/12/19 05:47:24;;;;;;;1999.90;999.90;;;;;;;11.51;83.15;101971.25;10460518;28;20502;-67
2023/12/19 05:52:27;;;;;;;1999.90;999.90;;;;;;;11.47;81.68;101965.28;10461610;28;20079;-66
2023/12/19 05:57:32;;;;;;;1999.90;999.90;;;;;;;12.07;80.77;101957.44;10461247;28;20084;-66
2023/12/19 06:02:35;;;;;;;1999.90;999.90;;;;;;;11.95;82.56;101963.22;10461232;28;20060;-66
2023/12/19 06:07:38;;;;;;;1999.90;999.90;;;;;;;12.12;79.71;101965.13;10460576;28;20567;-66
2023/12/19 06:12:40;;;;;;;1999.90;999.90;;;;;;;11.30;85.02;101949.41;10443732;28;20076;-66
2023/12/19 06:17:46;;;;;;;1999.90;999.90;;;;;;;11.20;85.02;101955.97;10460520;28;20053;-67
2023/12/19 06:22:48;;;;;;;1999.90;999.90;;;;;;;12.26;79.38;101941.69;10460331;28;20056;-64
2023/12/19 06:27:52;;;;;;;1999.90;999.90;;;;;;;12.30;77.91;101938.94;10460131;28;20504;-64
2023/12/19 06:32:54;;;;;;;1999.90;999.90;;;;;;;11.94;81.73;101947.56;10459855;28;20052;-63
2023/12/19 06:37:57;;;;;;;1999.90;999.90;;;;;;;12.50;78.37;101946.72;10459717;28;20063;-63
2023/12/19 06:43:03;;;;;;;1999.90;999.90;;;;;;;12.43;78.37;101955.81;10458511;28;20057;-64
2023/12/19 06:48:06;;;;;;;1999.90;999.90;;;;;;;12.60;78.01;101945.38;10459577;28;20049;-64
2023/12/19 06:53:08;;;;;;;1999.90;999.90;;;;;;;12.88;76.45;101933.53;10458029;28;20068;-64
2023/12/19 06:58:11;;;;;;;1999.90;999.90;;;;;;;12.75;78.42;101922.75;10459066;28;20123;-64
2023/12/19 07:03:13;;;;;;;1999.90;999.90;;;;;;;12.42;81.19;101919.97;10458092;28;20507;-64
2023/12/19 07:08:15;;;;;;;1999.90;999.90;;;;;;;12.19;81.47;101908.78;10458893;28;20048;-64
2023/12/19 07:13:18;;;;;;;1999.90;999.90;;;;;;;12.58;80.01;101904.34;10457138;28;20488;-64
2023/12/19 07:18:20;;;;;;;1999.90;999.90;;;;;;;12.82;76.25;101913.63;10457531;28;20041;-64
2023/12/19 07:23:23;;;;;;;1999.90;999.90;;;;;;;12.04;82.46;101901.63;10457832;28;20471;-64
2023/12/19 07:28:26;;;;;;;1999.90;999.90;;;;;;;12.26;80.90;101899.69;10456711;28;20073;-64
2023/12/19 07:33:28;;;;;;;1999.90;999.90;;;;;;;12.89;76.34;101895.78;10456313;28;20157;-65
2023/12/19 07:38:33;;;;;;;1999.90;999.90;;;;;;;12.60;78.08;101884.09;10457440;28;20076;-64
2023/12/19 07:43:36;;;;;;;1999.90;999.90;;;;;;;12.94;77.61;101904.28;10457234;28;20063;-64
2023/12/19 07:48:39;;;;;;;1999.90;999.90;;;;;;;12.58;80.76;101913.06;10457537;28;20481;-65
2023/12/19 07:53:41;;;;;;;1999.90;999.90;;;;;;;12.67;79.12;101913.56;10456974;28;20049;-63
2023/12/19 07:58:44;;;;;;;1999.90;999.90;;;;;;;12.60;80.34;101907.75;10456846;28;20047;-66
2023/12/19 08:03:47;;;;;;;1999.90;999.90;;;;;;;12.48;79.00;101892.56;10456816;28;20053;-66
2023/12/19 08:08:52;;;;;;;1999.90;999.90;;;;;;;12.32;80.86;101868.81;10456440;28;20053;-66
2023/12/19 08:13:55;;;;;;;1999.90;999.90;;;;;;;12.71;80.46;101887.06;10457080;28;20080;-67
2023/12/19 08:18:57;;;;;;;1999.90;999.90;;;;;;;12.73;79.15;101881.72;10456744;28;20055;-66
2023/12/19 08:24:00;;;;;;;1999.90;999.90;;;;;;;12.59;80.88;101866.63;10456115;28;20071;-66
2023/12/19 08:29:02;;;;;;;1999.90;999.90;;;;;;;12.68;80.40;101866.19;10456073;28;20395;-66
2023/12/19 08:34:05;;;;;;;1999.90;999.90;;;;;;;13.13;75.20;101870.06;10464268;28;20127;-66
2023/12/19 08:39:08;;;;;;;1999.90;999.90;;;;;;;12.92;79.33;101866.72;10464525;28;20077;-66
2023/12/19 08:44:11;;;;;;;1999.90;999.90;;;;;;;12.62;80.47;101855.97;10464805;28;20049;-66
2023/12/19 08:49:14;;;;;;;1999.90;999.90;;;;;;;13.32;78.37;101848.94;10464159;28;20048;-66
2023/12/19 08:54:16;;;;;;;1999.90;999.90;;;;;;;13.11;76.94;101839.50;10462462;28;20049;-67
2023/12/19 08:59:19;;;;;;;1999.90;999.90;;;;;;;12.93;80.16;101847.41;10448646;28;20048;-67
2023/12/19 09:04:21;;;;;;;1999.90;999.90;;;;;;;12.28;83.97;101836.59;10453830;28;20453;-67
2023/12/19 09:09:24;;;;;;;1999.90;999.90;;;;;;;12.57;79.63;101837.78;10461611;28;20044;-67
2023/12/19 09:14:26;;;;;;;1999.90;999.90;;;;;;;12.40;82.85;101828.13;10447689;28;20055;-67
2023/12/19 09:19:30;;;;;;;1999.90;999.90;;;;;;;12.54;81.86;101816.09;10459119;28;20472;-67
2023/12/19 09:24:33;;;;;;;1999.90;999.90;;;;;;;13.07;81.36;101827.47;10463070;28;20132;-67
2023/12/19 09:29:35;;;;;;;1999.90;999.90;;;;;;;12.89;81.64;101827.44;10452671;28;20049;-67
2023/12/19 09:34:41;;;;;;;1999.90;999.90;;;;;;;12.24;84.10;101809.63;10455365;28;20051;-67
2023/12/19 09:39:46;;;;;;;1999.90;999.90;;;;;;;12.29;85.23;101819.94;10436009;22;20054;-67
2023/12/19 09:44:49;;;;;;;1999.90;999.90;;;;;;;12.57;82.02;101803.66;10375635;28;20572;-68
2023/12/19 09:50:00;;;;;;;1999.90;999.90;;;;;;;12.80;82.58;101809.53;10372537;28;20148;-68
2023/12/19 09:55:05;;;;;;;1999.90;999.90;;;;;;;13.26;78.88;101790.53;10378527;28;20404;-68
2023/12/19 10:00:11;;;;;;;1999.90;999.90;;;;;;;12.64;83.63;101783.16;10376617;28;20046;-68
2023/12/19 10:05:14;;;;;;;1999.90;999.90;;;;;;;12.63;84.29;101786.75;10377586;28;20049;-68
2023/12/19 10:10:18;;;;;;;1999.90;999.90;;;;;;;12.32;83.87;101761.16;10377997;28;20074;-68
2023/12/19 10:15:21;;;;;;;1999.90;999.90;;;;;;;13.19;78.59;101754.03;10375939;28;20104;-67
2023/12/19 10:20:24;;;;;;;1999.90;999.90;;;;;;;12.91;82.08;101743.28;10377244;28;20473;-67
2023/12/19 10:25:27;;;;;;;1999.90;999.90;;;;;;;12.53;83.16;101744.31;10376696;28;20100;-66
2023/12/19 10:30:40;;;;;;;1999.90;999.90;;;;;;;12.88;82.17;101733.78;10377956;28;20056;-66
2023/12/19 10:35:46;;;;;;;1999.90;999.90;;;;;;;12.24;81.34;101733.50;10376334;28;20056;-66
2023/12/19 10:41:02;;;;;;;1999.90;999.90;;;;;;;13.37;79.30;101731.19;10377903;28;20058;-66
2023/12/19 10:46:05;;;;;;;1999.90;999.90;;;;;;;12.02;83.12;101727.59;10376448;28;20081;-66
2023/12/19 10:51:10;;;;;;;1999.90;999.90;;;;;;;13.70;79.28;101703.09;10377153;28;20133;-66
2023/12/19 10:56:12;;;;;;;1999.90;999.90;;;;;;;12.26;85.30;101712.41;10374836;28;20549;-66
2023/12/19 11:01:21;;;;;;;1999.90;999.90;;;;;;;13.08;81.37;101684.53;10375773;28;20056;-66
2023/12/19 11:06:29;;;;;;;1999.90;999.90;;;;;;;12.83;82.26;101670.09;10376850;28;20129;-66
2023/12/19 11:11:38;;;;;;;1999.90;999.90;;;;;;;12.59;84.26;101659.09;10375279;28;20485;-66
2023/12/19 11:16:53;;;;;;;1999.90;999.90;;;;;;;12.85;81.97;101668.25;10375240;28;20057;-66
2023/12/19 11:22:14;;;;;;;1999.90;999.90;;;;;;;13.07;80.63;101649.53;10375997;28;20515;-66
2023/12/19 11:27:27;;;;;;;1999.90;999.90;;;;;;;12.81;82.13;101648.31;10374931;28;20129;-67
2023/12/19 11:32:30;;;;;;;1999.90;999.90;;;;;;;12.54;84.03;101642.72;10374738;28;20052;-66
2023/12/19 11:37:33;;;;;;;1999.90;999.90;;;;;;;13.17;82.64;101628.84;10375692;28;20058;-68
2023/12/19 11:42:38;;;;;;;1999.90;999.90;;;;;;;13.60;79.61;101622.97;10358207;28;20058;-68
2023/12/19 11:47:41;;;;;;;1999.90;999.90;;;;;;;13.07;82.22;101622.41;10375239;28;20050;-68
2023/12/19 11:52:51;;;;;;;1999.90;999.90;;;;;;;13.30;80.93;101602.72;10375197;28;20054;-66
2023/12/19 11:57:58;;;;;;;1999.90;999.90;;;;;;;12.56;83.61;101597.06;10374903;28;20056;-66
2023/12/19 12:03:08;;;;;;;1999.90;999.90;;;;;;;13.34;82.58;101589.31;10374169;28;20057;-66
2023/12/19 12:08:14;;;;;;;1999.90;999.90;;;;;;;13.79;79.81;101589.41;10373991;28;20073;-66
2023/12/19 12:13:17;;;;;;;1999.90;999.90;;;;;;;12.65;82.76;101572.06;10374455;28;20490;-66
2023/12/19 12:18:20;;;;;;;1999.90;999.90;;;;;;;13.46;77.51;101561.47;10373031;28;20409;-66
2023/12/19 12:23:23;;;;;;;1999.90;999.90;;;;;;;12.99;80.23;101547.44;10374521;28;20084;-66
2023/12/19 12:28:26;;;;;;;1999.90;999.90;;;;;;;13.87;77.17;101529.28;10374278;28;20056;-66
2023/12/19 12:33:31;;;;;;;1999.90;999.90;;;;;;;13.48;80.19;101520.16;10372973;28;20397;-66
2023/12/19 12:38:34;;;;;;;1999.90;999.90;;;;;;;12.57;82.32;101525.19;10374221;28;20053;-66
2023/12/19 12:43:49;;;;;;;1999.90;999.90;;;;;;;13.94;78.21;101506.91;10373871;28;20058;-66
2023/12/19 12:48:52;;;;;;;1999.90;999.90;;;;;;;13.29;80.22;101494.03;10373976;28;20050;-66
2023/12/19 12:53:59;;;;;;;1999.90;999.90;;;;;;;12.63;84.56;101506.47;10373669;28;20078;-66
2023/12/19 12:59:12;;;;;;;1999.90;999.90;;;;;;;13.54;81.49;101495.28;10372755;28;20096;-66
2023/12/19 13:04:17;;;;;;;1999.90;999.90;;;;;;;13.78;78.81;101486.88;10372451;28;20054;-66
2023/12/19 13:09:20;;;;;;;1999.90;999.90;;;;;;;13.72;78.75;101475.78;10373022;28;20050;-66
2023/12/19 13:14:23;;;;;;;1999.90;999.90;;;;;;;13.17;81.99;101486.88;10373527;28;20060;-66
2023/12/19 13:19:25;;;;;;;1999.90;999.90;;;;;;;13.00;82.99;101475.53;10378182;28;20053;-66
2023/12/19 13:24:27;;;;;;;1999.90;999.90;;;;;;;12.73;84.63;101471.84;10380238;28;20128;-66
2023/12/19 13:29:30;;;;;;;1999.90;999.90;;;;;;;13.12;82.39;101466.09;10380438;28;20058;-66
2023/12/19 13:34:32;;;;;;;1999.90;999.90;;;;;;;12.48;86.25;101475.81;10380397;28;20065;-66
2023/12/19 13:39:35;;;;;;;1999.90;999.90;;;;;;;13.12;83.57;101465.25;10380204;28;20058;-66
2023/12/19 13:44:37;;;;;;;1999.90;999.90;;;;;;;13.05;81.23;101459.50;10379829;28;20442;-66
2023/12/19 13:49:40;;;;;;;1999.90;999.90;;;;;;;13.51;82.85;101451.56;10379732;28;20042;-68
2023/12/19 13:54:42;;;;;;;1999.90;999.90;;;;;;;13.23;83.25;101456.72;10379483;28;20050;-68
2023/12/19 13:59:45;;;;;;;1999.90;999.90;;;;;;;13.12;82.41;101454.72;10362048;28;20085;-66
2023/12/19 14:04:47;;;;;;;1999.90;999.90;;;;;;;13.77;80.46;101453.56;10377828;28;20129;-66
2023/12/19 14:09:49;;;;;;;1999.90;999.90;;;;;;;13.81;78.33;101441.94;10379083;28;20125;-66
2023/12/19 14:14:52;;;;;;;1999.90;999.90;;;;;;;13.34;80.16;101443.84;10378721;28;20085;-66
2023/12/19 14:19:55;;;;;;;1999.90;999.90;;;;;;;13.00;84.93;101441.34;10378376;28;20146;-66
2023/12/19 14:24:59;;;;;;;1999.90;999.90;;;;;;;12.78;85.75;101430.38;10377069;28;20085;-66
2023/12/19 14:30:05;;;;;;;1999.90;999.90;;;;;;;12.86;83.13;101422.91;10377862;28;20050;-66
2023/12/19 14:35:08;;;;;;;1999.90;999.90;;;;;;;13.42;81.20;101435.50;10376714;28;20057;-66
2023/12/19 14:40:13;;;;;;;1999.90;999.90;;;;;;;13.13;84.39;101411.72;10378002;28;20062;-66
2023/12/19 14:45:16;;;;;;;1999.90;999.90;;;;;;;12.72;86.46;101413.16;10376541;28;20164;-66
2023/12/19 14:50:20;;;;;;;1999.90;999.90;;;;;;;12.99;82.78;101413.41;10377367;28;20050;-66
2023/12/19 14:55:23;;;;;;;1999.90;999.90;;;;;;;13.28;84.32;101402.09;10376360;28;20049;-66
2023/12/19 15:00:27;;;;;;;1999.90;999.90;;;;;;;13.39;82.75;101394.44;10377438;28;20054;-66
2023/12/19 15:05:30;;;;;;;1999.90;999.90;;;;;;;13.20;81.98;101398.13;10376603;28;20050;-66
2023/12/19 15:10:32;;;;;;;1999.90;999.90;;;;;;;14.05;80.52;101387.75;10376626;28;20069;-66
2023/12/19 15:15:38;;;;;;;1999.90;999.90;;;;;;;13.53;83.78;101383.94;10374960;28;20046;-66
2023/12/19 15:20:40;;;;;;;1999.90;999.90;;;;;;;14.08;79.60;101386.75;10376841;28;20137;-66
2023/12/19 15:25:43;;;;;;;1999.90;999.90;;;;;;;13.56;78.69;101389.00;10376048;28;20049;-66
2023/12/19 15:30:45;;;;;;;1999.90;999.90;;;;;;;14.38;80.53;101383.13;10376313;28;20627;-66
2023/12/19 15:35:48;;;;;;;1999.90;999.90;;;;;;;12.75;83.10;101393.75;10374330;28;20484;-66
2023/12/19 15:40:50;;;;;;;1999.90;999.90;;;;;;;13.48;82.25;101386.00;10375368;28;20088;-66
2023/12/19 15:45:53;;;;;;;1999.90;999.90;;;;;;;13.44;82.53;101381.84;10375607;28;20050;-66
2023/12/19 15:50:56;;;;;;;1999.90;999.90;;;;;;;13.47;83.64;101380.84;10375527;28;20544;-66
2023/12/19 15:55:58;;;;;;;1999.90;999.90;;;;;;;13.23;82.29;101397.13;10374952;28;20088;-66
2023/12/19 16:01:00;;;;;;;1999.90;999.90;;;;;;;13.26;83.73;101372.41;10375573;28;20128;-66
2023/12/19 16:06:03;;;;;;;1999.90;999.90;;;;;;;13.25;83.18;101368.09;10374641;28;20444;-66
2023/12/19 16:11:06;;;;;;;1999.90;999.90;;;;;;;14.05;79.91;101371.13;10375026;28;20053;-66
2023/12/19 16:16:12;;;;;;;1999.90;999.90;;;;;;;13.92;81.62;101376.34;10374486;28;20053;-66
2023/12/19 16:21:17;;;;;;;1999.90;999.90;;;;;;;13.38;83.95;101384.84;10373235;28;20493;-66
2023/12/19 16:26:21;;;;;;;1999.90;999.90;;;;;;;13.52;82.58;101382.25;10373087;28;20121;-66
2023/12/19 16:31:23;;;;;;;1999.90;999.90;;;;;;;13.38;83.09;101380.47;10374071;28;20549;-67
2023/12/19 16:36:26;;;;;;;1999.90;999.90;;;;;;;13.32;87.13;101372.09;10372841;28;20083;-66
2023/12/19 16:41:29;;;;;;;1999.90;999.90;;;;;;;12.94;84.51;101373.34;10372796;28;20129;-67
2023/12/19 16:46:32;;;;;;;1999.90;999.90;;;;;;;13.80;81.87;101370.06;10374021;28;20062;-68
2023/12/19 16:51:45;;;;;;;1999.90;999.90;;;;;;;13.47;82.95;101386.94;10373296;28;20062;-68
2023/12/19 16:56:48;;;;;;;1999.90;999.90;;;;;;;14.12;80.77;101393.50;10381857;28;20116;-68
2023/12/19 17:01:51;;;;;;;1999.90;999.90;;;;;;;13.54;85.34;101408.47;10381801;28;20124;-66
2023/12/19 17:06:53;;;;;;;1999.90;999.90;;;;;;;15.01;74.55;101377.25;10381302;28;20045;-66
2023/12/19 17:11:56;;;;;;;1999.90;999.90;;;;;;;14.14;79.19;101378.47;10381160;28;20504;-67
2023/12/19 17:16:58;;;;;;;1999.90;999.90;;;;;;;14.23;77.75;101382.28;10380837;28;20046;-66
2023/12/19 17:22:03;;;;;;;1999.90;999.90;;;;;;;14.17;78.79;101385.31;10379483;28;20058;-66
2023/12/19 17:27:05;;;;;;;1999.90;999.90;;;;;;;14.33;77.46;101387.84;10379208;28;20394;-66
2023/12/19 17:32:08;;;;;;;1999.90;999.90;;;;;;;14.20;78.80;101382.50;10380719;28;20448;-66
2023/12/19 17:37:11;;;;;;;1999.90;999.90;;;;;;;14.06;80.47;101378.09;10380229;28;20060;-66
2023/12/19 17:42:14;;;;;;;1999.90;999.90;;;;;;;13.65;80.00;101378.84;10378796;28;20085;-66
2023/12/19 17:47:17;;;;;;;1999.90;999.90;;;;;;;14.07;81.19;101366.59;10379855;28;20088;-66
2023/12/19 17:52:19;;;;;;;1999.90;999.90;;;;;;;14.15;80.26;101382.78;10379516;28;20500;-66
2023/12/19 17:57:22;;;;;;;1999.90;999.90;;;;;;;14.09;79.59;101385.81;10378166;28;20054;-66
2023/12/19 18:02:24;;;;;;;1999.90;999.90;;;;;;;13.96;82.43;101396.25;10378451;28;20046;-66
2023/12/19 18:07:26;;;;;;;1999.90;999.90;;;;;;;14.64;77.20;101395.47;10379118;28;20053;-66
2023/12/19 18:12:30;;;;;;;1999.90;999.90;;;;;;;14.44;77.17;101387.97;10378857;28;20527;-66
2023/12/19 18:17:33;;;;;;;1999.90;999.90;;;;;;;13.65;82.33;101386.75;10378658;28;20049;-66
2023/12/19 18:22:35;;;;;;;1999.90;999.90;;;;;;;14.41;78.60;101399.56;10378695;28;20049;-66
2023/12/19 18:27:37;;;;;;;1999.90;999.90;;;;;;;13.44;80.27;101392.38;10378123;28;20121;-67
2023/12/19 18:32:40;;;;;;;1999.90;999.90;;;;;;;13.97;79.93;101389.19;10378612;28;20084;-66
2023/12/19 18:37:43;;;;;;;1999.90;999.90;;;;;;;13.48;84.34;101387.78;10377680;28;20406;-66
2023/12/19 18:42:49;;;;;;;1999.90;999.90;;;;;;;13.99;80.42;101390.81;10377569;28;20408;-66
2023/12/19 18:47:52;;;;;;;1999.90;999.90;;;;;;;13.94;79.30;101393.72;10377525;28;20060;-66
2023/12/19 18:52:54;;;;;;;1999.90;999.90;;;;;;;14.30;77.62;101410.75;10376078;28;20054;-66
2023/12/19 18:57:57;;;;;;;1999.90;999.90;;;;;;;14.15;79.05;101401.19;10375980;28;20053;-66
2023/12/19 19:02:59;;;;;;;1999.90;999.90;;;;;;;13.42;83.76;101410.03;10376837;28;20084;-66
2023/12/19 19:08:02;;;;;;;1999.90;999.90;;;;;;;14.40;78.85;101415.47;10376858;28;20052;-66
2023/12/19 19:13:04;;;;;;;1999.90;999.90;;;;;;;14.45;80.80;101416.00;10376558;28;20077;-67
2023/12/19 19:18:07;;;;;;;1999.90;999.90;;;;;;;13.70;82.71;101409.25;10375533;28;20129;-67
2023/12/19 19:23:15;;;;;;;1999.90;999.90;;;;;;;13.87;81.18;101400.31;10376062;28;20060;-66
2023/12/19 19:28:19;;;;;;;1999.90;999.90;;;;;;;14.19;80.58;101415.88;10375881;28;20466;-66
2023/12/19 19:33:21;;;;;;;1999.90;999.90;;;;;;;14.57;77.40;101393.31;10375970;28;20100;-66
2023/12/19 19:38:29;;;;;;;1999.90;999.90;;;;;;;14.61;78.23;101403.59;10375653;28;20065;-66
2023/12/19 19:43:32;;;;;;;1999.90;999.90;;;;;;;13.61;82.09;101409.78;10375742;28;20053;-66
2023/12/19 19:48:35;;;;;;;1999.90;999.90;;;;;;;14.48;79.21;101395.59;10375634;28;20125;-66
2023/12/19 19:53:38;;;;;;;1999.90;999.90;;;;;;;13.69;83.26;101398.81;10375038;28;20107;-66
2023/12/19 19:58:40;;;;;;;1999.90;999.90;;;;;;;13.97;81.57;101415.50;10374963;28;20046;-67
2023/12/19 20:03:44;;;;;;;1999.90;999.90;;;;;;;14.13;82.65;101411.00;10374750;28;20050;-66
2023/12/19 20:08:46;;;;;;;1999.90;999.90;;;;;;;14.27;80.55;101421.53;10357995;28;20042;-66
2023/12/19 20:13:49;;;;;;;1999.90;999.90;;;;;;;14.19;80.04;101426.41;10374561;28;20065;-66
2023/12/19 20:18:51;;;;;;;1999.90;999.90;;;;;;;13.81;84.14;101426.16;10374579;28;20050;-66
2023/12/19 20:23:53;;;;;;;1999.90;999.90;;;;;;;14.12;80.45;101422.47;10374396;28;20058;-66
2023/12/19 20:28:56;;;;;;;1999.90;999.90;;;;;;;13.58;83.90;101417.84;10380312;28;20042;-66
2023/12/19 20:33:58;;;;;;;1999.90;999.90;;;;;;;14.26;81.43;101411.91;10381392;28;20052;-66
2023/12/19 20:39:01;;;;;;;1999.90;999.90;;;;;;;14.69;81.29;101418.88;10382193;28;20096;-66
2023/12/19 20:44:03;;;;;;;1999.90;999.90;;;;;;;13.94;82.41;101425.31;10382403;28;20158;-66
2023/12/19 20:49:07;;;;;;;1999.90;999.90;;;;;;;14.00;82.04;101439.03;10382005;28;20052;-66
2023/12/19 20:54:12;;;;;;;1999.90;999.90;;;;;;;14.56;79.08;101429.34;10381887;28;20501;-66
2023/12/19 20:59:15;;;;;;;1999.90;999.90;;;;;;;15.01;76.51;101424.69;10381584;28;20046;-66
2023/12/19 21:04:17;;;;;;;1999.90;999.90;;;;;;;13.93;80.17;101433.28;10380359;28;20061;-66
2023/12/19 21:09:19;;;;;;;1999.90;999.90;;;;;;;14.08;81.52;101421.81;10381462;28;20042;-66
2023/12/19 21:14:23;;;;;;;1999.90;999.90;;;;;;;14.04;78.58;101422.13;10380958;28;20503;-66
2023/12/19 21:19:28;;;;;;;1999.90;999.90;;;;;;;14.57;76.96;101425.75;10380183;28;20081;-66
2023/12/19 21:24:31;;;;;;;1999.90;999.90;;;;;;;14.01;79.99;101438.09;10380756;28;20509;-66
2023/12/19 21:29:34;;;;;;;1999.90;999.90;;;;;;;13.73;79.49;101434.50;10380432;28;20082;-66
2023/12/19 21:34:36;;;;;;;1999.90;999.90;;;;;;;13.95;78.26;101420.88;10380239;28;20493;-66
2023/12/19 21:39:39;;;;;;;1999.90;999.90;;;;;;;14.41;76.70;101422.44;10378982;28;20057;-66
2023/12/19 21:44:41;;;;;;;1999.90;999.90;;;;;;;14.21;76.51;101429.78;10380585;28;20105;-66
2023/12/19 21:49:44;;;;;;;1999.90;999.90;;;;;;;13.13;80.97;101417.84;10378554;28;20129;-66
2023/12/19 21:54:46;;;;;;;1999.90;999.90;;;;;;;13.21;79.17;101414.75;10428334;23;20049;-63
2023/12/19 21:59:49;;;;;;;1999.90;999.90;;;;;;;14.11;76.41;101418.97;10461621;28;20099;-63